ナイロビ の空港の天気 - METARとTAF

ジョモ・ケニヤッタ国際空港 ( HKJK / NBO ) - ケニア ナイロビ
飛行場実況気象(Metar)
観測時間09/19 02:00 EAT (09/18 23:00 UTC)
風向・風速西南西 2m/s
視程10km以上
天気現象
なし
気温15℃
湿度82%
気圧1022hPa
METARHKJK 182300Z 25003KT CAVOK 15/12 Q1022 NOSIG
過去の天気等 Google飛行場航空写真 Wunderground天気予報

過去48時間のMETAR

飛行場予報(TAF)
発表時間: 9/18 20:00 EAT (9/18 17:00 UTC)
予報対象時間: 18日21時 EAT ~ 20日3時 EAT
風向・風速東 5m/s
視程10km以上
全天の8割程度の雲 雲底高度 670m
19日4時 EAT ~ 19日8時 EAT に徐々に
風向・風速南南西 3m/s
少しの雲 雲底高度 210m
全天の8割程度の雲 雲底高度 520m
19日11時 EAT ~ 19日14時 EAT に徐々に
風向・風速東 5m/s
全天の8割程度の雲 雲底高度 790m
19日17時 EAT ~ 19日21時 EAT に 確率 30% で一時的に
少しの積乱雲 雲底高度 700m
全天の4割程度の雲 雲底高度 730m
全天の8割程度の雲 雲底高度 2440m
19日21時 EAT ~ 20日1時 EAT に徐々に
天気現象運行に影響にある天気現象が終了
全天の8割程度の雲 雲底高度 670m
TAF HKJK 181700Z 1818/1924 09010KT 9999 BKN022
BECMG 1901/1905 20005KT FEW007 BKN017
BECMG 1908/1911 09010KT BKN026
PROB30 TEMPO 1914/1918-SHRA FEW023CB SCT024 BKN080
BECMG 1918/1922 NSW BKN022